Accueil
METAR-TAF:

METAR-TAF

Aéroports :

Aéroport de Port Moresby-Jacksons

Port Moresby, Papouasie-Nouvelle-Guinée

latitude: 09-26S, longitude: 147-13E, altitude: 38 m

Observation

Le bulletin a été fait il y a 32 minutes, à 18:00 UTC
Vent 10 kt de sud-est
Température 24°C
Humidité 78%
Pression 1010 hPa
Visibilité 10 km ou plus
Nuages fragmentés à une hauteur de 5000 ft

METAR: AYPY 131800Z 14010KT 9999 BKN050 24/20 Q1010

Heure: 04:32 (18:32 UTC)

Prévision

Le bulletin a été fait il y a 2 heures et 32 minutes, à 16:00 UTC
Prévision valable du 13 à 18 UTC au 14 à 18 UTC
Vent 10 kt de sud/sud-est
Visibilité 10 km ou plus
Nuages épars à une hauteur de 4000 ft
Nuages fragmentés à une hauteur de 14000 ft
A partir de 14 à 0000 UTC
Vent 15 kt de sud/sud-est
Visibilité 10 km ou plus
Nuages épars à une hauteur de 2000 ft
Nuages épars à une hauteur de 14000 ft

TAF: AYPY 131600Z 1318/1418 15010KT 9999 SCT040 BKN140 FM140000 16015KT 9999 SCT020 SCT140

Observations et prévisions météorologiques de plus de 4000 aéroports (messages METAR et TAF).

Les stations disponibles sont représentées par des disques jaunes et rouges sur la carte.

Passer la souris dessus pour voir le nom de la station.

Cliquer dessus pour voir les observations et prévisions météorologiques.

Pour changer de carte: cliquez sur les boutons verts avec une croix noire pour zoomer, sur le bouton vert avec un tiret pour effectuer un zoom arrière, ou sur les flèches vertes pour les cartes adjacentes.


METAR-TAF: